Time;durP1;ratioP1;P1;durP2;ratioP2;P2;SDS_P1;SDS_P2;PMS_P1;PMS_P2;Temp;Humidity;BMP_temperature;BMP_pressure;BME280_temperature;BME280_humidity;BME280_pressure;Samples;Min_cycle;Max_cycle;Signal;HPM_P1;HPM_P2
2021/06/15 00:02:10;;;;;;;;;;;20.70;69.20;;;;;;5032340;28;1344;-72
2021/06/15 00:04:35;;;;;;;;;;;20.70;69.30;;;;;;5032427;28;1060;-73
2021/06/15 00:07:01;;;;;;;;;;;20.70;69.20;;;;;;5033786;28;1252;-73
2021/06/15 00:09:26;;;;;;;;;;;20.70;69.20;;;;;;5033411;28;1067;-72
2021/06/15 00:11:52;;;;;;;;;;;20.70;69.20;;;;;;5033563;28;1079;-73
2021/06/15 00:14:17;;;;;;;;;;;20.70;69.20;;;;;;5031952;28;1116;-72
2021/06/15 00:16:43;;;;;;;;;;;20.70;69.20;;;;;;5032283;28;1350;-72
2021/06/15 00:19:08;;;;;;;;;;;20.70;69.20;;;;;;5033266;28;1969;-72
2021/06/15 00:21:33;;;;;;;;;;;20.70;69.20;;;;;;5033323;28;1130;-72
2021/06/15 00:23:59;;;;;;;;;;;20.70;69.30;;;;;;5032733;28;1083;-72
2021/06/15 00:26:24;;;;;;;;;;;20.70;69.20;;;;;;5032376;28;1076;-72
2021/06/15 00:28:50;;;;;;;;;;;20.70;69.30;;;;;;5033230;28;1304;-73
2021/06/15 00:31:15;;;;;;;;;;;20.70;69.30;;;;;;5033365;28;1051;-72
2021/06/15 00:33:41;;;;;;;;;;;20.70;69.20;;;;;;5031853;28;1071;-72
2021/06/15 00:36:06;;;;;;;;;;;20.70;69.30;;;;;;5033149;28;1114;-73
2021/06/15 00:38:32;;;;;;;;;;;20.70;69.30;;;;;;5031212;28;1883;-73
2021/06/15 00:40:57;;;;;;;;;;;20.70;69.30;;;;;;5033227;28;1114;-73
2021/06/15 00:43:22;;;;;;;;;;;20.70;69.30;;;;;;5032494;28;1083;-74
2021/06/15 00:45:48;;;;;;;;;;;20.70;69.20;;;;;;5031903;28;1170;-73
2021/06/15 00:48:19;;;;;;;;;;;20.70;69.20;;;;;;5032680;28;1310;-73
2021/06/15 00:50:45;;;;;;;;;;;20.70;69.20;;;;;;5031761;28;1108;-73
2021/06/15 00:53:10;;;;;;;;;;;20.70;69.30;;;;;;5031123;28;1092;-74
2021/06/15 00:55:35;;;;;;;;;;;20.70;69.30;;;;;;5032959;28;1075;-73
2021/06/15 00:58:01;;;;;;;;;;;20.60;69.20;;;;;;5032449;28;1969;-73
2021/06/15 01:00:26;;;;;;;;;;;20.70;69.30;;;;;;5031684;28;1104;-73
2021/06/15 01:02:52;;;;;;;;;;;20.70;69.30;;;;;;5032713;28;1197;-73
2021/06/15 01:05:17;;;;;;;;;;;20.70;69.30;;;;;;5032644;28;1130;-74
2021/06/15 01:07:58;;;;;;;;;;;20.70;69.30;;;;;;5031264;28;1288;-73
2021/06/15 01:10:42;;;;;;;;;;;20.70;69.30;;;;;;5031696;28;1064;-74
2021/06/15 01:13:13;;;;;;;;;;;20.70;69.40;;;;;;5032434;28;1190;-72
2021/06/15 01:15:56;;;;;;;;;;;20.70;69.30;;;;;;5032591;28;1189;-72
2021/06/15 01:18:22;;;;;;;;;;;20.70;69.30;;;;;;5011600;28;1961;-72
2021/06/15 01:20:51;;;;;;;;;;;20.70;69.40;;;;;;5026883;28;1183;-72
2021/06/15 01:23:23;;;;;;;;;;;20.70;69.30;;;;;;5032203;28;1084;-74
2021/06/15 01:26:00;;;;;;;;;;;20.60;69.20;;;;;;5032640;28;1095;-74
2021/06/15 01:28:27;;;;;;;;;;;20.60;69.30;;;;;;5032054;28;1225;-74
2021/06/15 01:30:53;;;;;;;;;;;20.60;69.30;;;;;;5031293;28;1146;-73
2021/06/15 01:33:19;;;;;;;;;;;20.70;69.40;;;;;;5031078;28;1319;-73
2021/06/15 01:35:44;;;;;;;;;;;20.70;69.40;;;;;;5031120;28;1299;-73
2021/06/15 01:38:11;;;;;;;;;;;20.70;69.30;;;;;;5031543;28;1890;-72
2021/06/15 01:40:38;;;;;;;;;;;20.70;69.40;;;;;;5031276;28;1100;-72
2021/06/15 01:43:04;;;;;;;;;;;20.70;69.40;;;;;;5032114;28;1142;-72
2021/06/15 01:45:30;;;;;;;;;;;20.70;69.40;;;;;;5032521;28;1136;-72
2021/06/15 01:48:11;;;;;;;;;;;20.60;69.30;;;;;;5036269;28;1289;-72
2021/06/15 01:50:36;;;;;;;;;;;20.60;69.30;;;;;;5021920;28;1225;-71
2021/06/15 01:53:03;;;;;;;;;;;20.70;69.30;;;;;;5034715;28;1163;-71
2021/06/15 01:55:28;;;;;;;;;;;20.70;70.10;;;;;;5034678;28;1080;-71
2021/06/15 01:57:54;;;;;;;;;;;20.60;69.30;;;;;;5036051;28;1913;-71
2021/06/15 02:00:20;;;;;;;;;;;20.60;69.30;;;;;;5034711;28;1060;-71
2021/06/15 02:02:45;;;;;;;;;;;20.70;69.40;;;;;;5033001;28;1287;-70
2021/06/15 02:05:11;;;;;;;;;;;20.60;69.30;;;;;;5014633;28;1068;-71
2021/06/15 02:07:41;;;;;;;;;;;20.70;69.30;;;;;;5034499;28;1405;-71
2021/06/15 02:10:11;;;;;;;;;;;20.70;69.30;;;;;;5035726;28;1083;-71
2021/06/15 02:12:40;;;;;;;;;;;20.70;69.40;;;;;;5035660;28;1170;-71
2021/06/15 02:15:06;;;;;;;;;;;20.70;69.20;;;;;;5034555;28;1151;-71
2021/06/15 02:17:32;;;;;;;;;;;20.60;69.20;;;;;;5035501;28;1965;-71
2021/06/15 02:19:57;;;;;;;;;;;20.60;69.60;;;;;;5028932;28;1216;-71
2021/06/15 02:22:23;;;;;;;;;;;20.70;69.20;;;;;;5031621;28;1247;-71
2021/06/15 02:24:52;;;;;;;;;;;20.70;69.30;;;;;;5031198;28;1167;-70
2021/06/15 02:27:19;;;;;;;;;;;20.70;69.10;;;;;;5024635;28;1304;-70
2021/06/15 02:29:44;;;;;;;;;;;20.60;69.00;;;;;;5030194;28;1200;-70
2021/06/15 02:32:10;;;;;;;;;;;20.70;69.20;;;;;;5028562;28;1251;-70
2021/06/15 02:34:36;;;;;;;;;;;20.70;69.20;;;;;;5026843;28;1160;-70
2021/06/15 02:37:02;;;;;;;;;;;20.70;69.20;;;;;;5026309;28;1327;-71
2021/06/15 02:39:28;;;;;;;;;;;20.70;69.30;;;;;;5025372;28;1963;-71
2021/06/15 02:41:53;;;;;;;;;;;20.60;69.20;;;;;;5025465;28;1255;-71
2021/06/15 02:44:19;;;;;;;;;;;20.70;69.30;;;;;;5022311;28;1224;-71
2021/06/15 02:46:45;;;;;;;;;;;20.70;69.30;;;;;;5025680;28;1288;-71
2021/06/15 02:49:12;;;;;;;;;;;20.70;69.40;;;;;;5033986;28;1092;-71
2021/06/15 02:51:39;;;;;;;;;;;20.70;69.30;;;;;;5034055;28;1200;-71
2021/06/15 02:54:08;;;;;;;;;;;20.70;69.30;;;;;;5033920;28;1069;-71
2021/06/15 02:56:34;;;;;;;;;;;20.70;69.40;;;;;;5034265;28;1440;-71
2021/06/15 02:59:00;;;;;;;;;;;20.60;69.30;;;;;;5033547;28;1906;-72
2021/06/15 03:01:25;;;;;;;;;;;20.70;69.40;;;;;;5035022;28;1151;-71
2021/06/15 03:03:51;;;;;;;;;;;20.60;69.30;;;;;;5034593;28;1067;-71
2021/06/15 03:06:16;;;;;;;;;;;20.70;69.40;;;;;;5035026;28;1055;-71
2021/06/15 03:08:41;;;;;;;;;;;20.70;69.40;;;;;;5034782;28;1184;-71
2021/06/15 03:11:07;;;;;;;;;;;20.70;69.40;;;;;;5033600;28;1195;-71
2021/06/15 03:13:37;;;;;;;;;;;20.70;69.40;;;;;;5033218;28;1080;-72
2021/06/15 03:16:03;;;;;;;;;;;20.70;69.40;;;;;;5033466;28;1488;-71
2021/06/15 03:18:28;;;;;;;;;;;20.70;69.40;;;;;;5033261;28;1963;-71
2021/06/15 03:20:54;;;;;;;;;;;20.60;70.10;;;;;;5034337;28;1163;-71
2021/06/15 03:23:29;;;;;;;;;;;20.60;69.40;;;;;;5033200;28;1056;-72
2021/06/15 03:25:54;;;;;;;;;;;20.70;69.40;;;;;;5034542;28;1206;-71
2021/06/15 03:28:21;;;;;;;;;;;20.70;69.40;;;;;;5033082;28;1145;-71
2021/06/15 03:30:46;;;;;;;;;;;20.60;69.40;;;;;;5033329;28;953;-71
2021/06/15 03:33:15;;;;;;;;;;;20.60;69.30;;;;;;5032742;28;1197;-72
2021/06/15 03:35:41;;;;;;;;;;;20.70;69.40;;;;;;5033039;28;1151;-71
2021/06/15 03:38:07;;;;;;;;;;;20.60;69.40;;;;;;5032676;28;1914;-72
2021/06/15 03:40:33;;;;;;;;;;;20.60;69.40;;;;;;5034203;28;1021;-71
2021/06/15 03:42:59;;;;;;;;;;;20.70;69.50;;;;;;5033901;28;1075;-71
2021/06/15 03:45:24;;;;;;;;;;;20.60;69.40;;;;;;5032908;28;1108;-71
2021/06/15 03:47:50;;;;;;;;;;;20.60;69.40;;;;;;5033789;28;1389;-71
2021/06/15 03:50:15;;;;;;;;;;;20.70;69.40;;;;;;5032742;28;1143;-71
2021/06/15 03:52:41;;;;;;;;;;;20.70;69.40;;;;;;5032917;28;1069;-71
2021/06/15 03:55:07;;;;;;;;;;;20.70;69.40;;;;;;5032653;28;1139;-71
2021/06/15 03:57:32;;;;;;;;;;;20.60;69.40;;;;;;5033902;28;1975;-71
2021/06/15 03:59:58;;;;;;;;;;;20.60;69.40;;;;;;5033803;28;1115;-71
2021/06/15 04:02:24;;;;;;;;;;;20.60;69.40;;;;;;5032638;28;1088;-71
2021/06/15 04:04:49;;;;;;;;;;;20.60;69.40;;;;;;5032312;28;934;-71
2021/06/15 04:07:16;;;;;;;;;;;20.60;69.40;;;;;;5033825;28;1259;-71
2021/06/15 04:09:42;;;;;;;;;;;20.70;69.50;;;;;;5032120;28;1084;-71
2021/06/15 04:12:09;;;;;;;;;;;20.60;69.40;;;;;;5032494;28;943;-71
2021/06/15 04:14:35;;;;;;;;;;;20.70;69.40;;;;;;5032091;28;1138;-71
2021/06/15 04:17:01;;;;;;;;;;;20.60;69.40;;;;;;5033571;28;1272;-71
2021/06/15 04:19:27;;;;;;;;;;;20.70;69.40;;;;;;5033209;28;1898;-71
2021/06/15 04:21:53;;;;;;;;;;;20.60;69.00;;;;;;5032316;28;1108;-72
2021/06/15 04:24:20;;;;;;;;;;;20.60;69.00;;;;;;5033121;28;1151;-71
2021/06/15 04:26:45;;;;;;;;;;;20.70;69.10;;;;;;5032244;28;1259;-72
2021/06/15 04:29:11;;;;;;;;;;;20.70;69.10;;;;;;5032025;28;872;-72
2021/06/15 04:31:37;;;;;;;;;;;20.70;69.20;;;;;;5032046;28;1111;-72
2021/06/15 04:34:03;;;;;;;;;;;20.70;69.20;;;;;;5032903;28;1194;-71
2021/06/15 04:36:29;;;;;;;;;;;20.70;69.20;;;;;;5032191;28;1135;-72
2021/06/15 04:38:56;;;;;;;;;;;20.70;69.10;;;;;;5032864;28;1910;-72
2021/06/15 04:41:22;;;;;;;;;;;20.70;69.10;;;;;;5031967;28;1119;-72
2021/06/15 04:43:48;;;;;;;;;;;20.70;69.10;;;;;;5031571;28;1219;-71
2021/06/15 04:46:19;;;;;;;;;;;20.70;69.10;;;;;;5031738;28;1269;-71
2021/06/15 04:48:46;;;;;;;;;;;20.70;69.10;;;;;;5032872;28;1294;-71
2021/06/15 04:51:11;;;;;;;;;;;20.70;69.10;;;;;;5031878;28;1151;-71
2021/06/15 04:53:37;;;;;;;;;;;20.70;69.10;;;;;;5031475;28;1267;-71
2021/06/15 04:56:03;;;;;;;;;;;20.70;69.00;;;;;;5031875;28;1115;-71
2021/06/15 04:58:31;;;;;;;;;;;20.70;69.00;;;;;;5032719;28;1910;-71
2021/06/15 05:00:57;;;;;;;;;;;20.70;69.00;;;;;;5015196;28;1277;-71
2021/06/15 05:03:22;;;;;;;;;;;20.70;68.90;;;;;;5031389;28;1112;-72
2021/06/15 05:05:48;;;;;;;;;;;20.70;69.70;;;;;;5032893;28;1134;-72
2021/06/15 05:08:14;;;;;;;;;;;20.70;68.90;;;;;;5031857;28;1342;-72
2021/06/15 05:10:39;;;;;;;;;;;20.70;69.00;;;;;;5031622;28;1136;-71
2021/06/15 05:13:08;;;;;;;;;;;20.70;69.00;;;;;;5032460;28;1119;-71
2021/06/15 05:15:33;;;;;;;;;;;20.70;69.00;;;;;;5019638;28;1010;-70
2021/06/15 05:17:58;;;;;;;;;;;20.70;69.00;;;;;;5040437;28;1950;-71
2021/06/15 05:20:24;;;;;;;;;;;20.70;69.00;;;;;;5026325;28;1527;-71
2021/06/15 05:22:52;;;;;;;;;;;20.70;68.90;;;;;;5017203;28;1372;-71
2021/06/15 05:25:18;;;;;;;;;;;20.70;68.90;;;;;;5029636;28;1072;-71
2021/06/15 05:27:43;;;;;;;;;;;20.70;68.90;;;;;;5036514;28;1232;-71
2021/06/15 05:30:11;;;;;;;;;;;20.70;68.90;;;;;;5018214;28;1994;-71
2021/06/15 05:32:37;;;;;;;;;;;20.70;68.90;;;;;;5036432;28;1139;-70
2021/06/15 05:35:02;;;;;;;;;;;20.70;68.90;;;;;;5034962;28;1088;-71
2021/06/15 05:37:28;;;;;;;;;;;20.70;68.90;;;;;;5034193;28;1953;-71
2021/06/15 05:39:55;;;;;;;;;;;20.70;69.00;;;;;;5035305;28;1092;-71
2021/06/15 05:42:21;;;;;;;;;;;20.70;69.00;;;;;;5035140;28;1112;-71
2021/06/15 05:44:46;;;;;;;;;;;20.70;69.00;;;;;;5034851;28;1131;-71
2021/06/15 05:47:12;;;;;;;;;;;20.70;69.00;;;;;;5036159;28;1312;-71
2021/06/15 05:49:37;;;;;;;;;;;20.70;69.10;;;;;;5036287;28;1087;-71
2021/06/15 05:52:04;;;;;;;;;;;20.70;69.10;;;;;;5036184;28;1127;-71
2021/06/15 05:54:29;;;;;;;;;;;20.70;69.10;;;;;;5018203;28;1349;-71
2021/06/15 05:56:55;;;;;;;;;;;20.70;69.10;;;;;;5035853;28;1270;-71
2021/06/15 05:59:20;;;;;;;;;;;20.70;69.40;;;;;;5035878;28;1906;-71
2021/06/15 06:01:46;;;;;;;;;;;20.70;69.10;;;;;;5034857;28;1119;-70
2021/06/15 06:04:13;;;;;;;;;;;20.70;69.00;;;;;;5035799;28;788;-71
2021/06/15 06:09:23;;;;;;;;;;;20.70;69.00;;;;;;5034837;28;1115;-71
2021/06/15 06:11:48;;;;;;;;;;;20.70;68.90;;;;;;5035612;28;1126;-71
2021/06/15 06:14:13;;;;;;;;;;;20.70;69.00;;;;;;5033143;28;1116;-71
2021/06/15 06:16:42;;;;;;;;;;;20.70;68.90;;;;;;5023643;28;1306;-71
2021/06/15 06:19:08;;;;;;;;;;;20.70;68.90;;;;;;5034455;28;1973;-71
2021/06/15 06:21:34;;;;;;;;;;;20.70;68.70;;;;;;5034432;28;1290;-71
2021/06/15 06:24:00;;;;;;;;;;;20.70;68.90;;;;;;5035259;28;1056;-71
2021/06/15 06:26:26;;;;;;;;;;;20.70;68.80;;;;;;5034228;28;1139;-71
2021/06/15 06:28:51;;;;;;;;;;;20.70;68.90;;;;;;5035376;28;1189;-71
2021/06/15 06:31:16;;;;;;;;;;;20.70;68.90;;;;;;5033644;28;1131;-71
2021/06/15 06:33:42;;;;;;;;;;;20.70;68.90;;;;;;5034853;28;1122;-71
2021/06/15 06:36:07;;;;;;;;;;;20.70;68.90;;;;;;5035657;28;1060;-71
2021/06/15 06:38:33;;;;;;;;;;;20.70;69.00;;;;;;5034981;28;1976;-71
2021/06/15 06:40:58;;;;;;;;;;;20.70;68.90;;;;;;5035599;28;1048;-71
2021/06/15 06:43:24;;;;;;;;;;;20.70;68.90;;;;;;5033781;28;1139;-71
2021/06/15 06:45:49;;;;;;;;;;;20.70;68.80;;;;;;5035278;28;1135;-71
2021/06/15 06:48:14;;;;;;;;;;;20.70;68.80;;;;;;5034957;28;1369;-71
2021/06/15 06:50:40;;;;;;;;;;;20.70;68.80;;;;;;5035420;28;1134;-71
2021/06/15 06:53:05;;;;;;;;;;;20.70;68.80;;;;;;5034720;28;1174;-71
2021/06/15 06:55:31;;;;;;;;;;;20.70;68.90;;;;;;5033800;28;1080;-71
2021/06/15 06:57:56;;;;;;;;;;;20.70;68.70;;;;;;5033562;28;1980;-71
2021/06/15 07:00:22;;;;;;;;;;;20.70;68.80;;;;;;5033798;28;1100;-71
2021/06/15 07:02:50;;;;;;;;;;;20.70;68.70;;;;;;5033362;28;1120;-71
2021/06/15 07:05:16;;;;;;;;;;;20.70;68.60;;;;;;5034978;28;1107;-71
2021/06/15 07:07:41;;;;;;;;;;;20.70;68.70;;;;;;5032508;28;1499;-72
2021/06/15 07:10:07;;;;;;;;;;;20.70;68.70;;;;;;5029895;28;1988;-70
2021/06/15 07:12:32;;;;;;;;;;;20.70;68.70;;;;;;5033327;28;1275;-71
2021/06/15 07:14:58;;;;;;;;;;;20.70;68.70;;;;;;5034270;28;1139;-71
2021/06/15 07:17:23;;;;;;;;;;;20.70;68.70;;;;;;5034576;28;1898;-72
2021/06/15 07:19:49;;;;;;;;;;;20.70;68.70;;;;;;5034599;28;879;-71
2021/06/15 07:22:14;;;;;;;;;;;20.70;68.70;;;;;;5034964;28;1079;-71
2021/06/15 07:24:40;;;;;;;;;;;20.70;68.70;;;;;;5034101;28;1135;-71
2021/06/15 07:27:05;;;;;;;;;;;20.70;68.60;;;;;;5034538;28;1209;-71
2021/06/15 07:29:30;;;;;;;;;;;20.70;68.60;;;;;;5034542;28;883;-71
2021/06/15 07:31:56;;;;;;;;;;;20.70;68.60;;;;;;5034530;28;997;-71
2021/06/15 07:34:21;;;;;;;;;;;20.70;68.60;;;;;;5020692;28;726;-71
2021/06/15 07:36:47;;;;;;;;;;;20.70;68.50;;;;;;5033107;28;1335;-71
2021/06/15 07:39:12;;;;;;;;;;;20.70;68.60;;;;;;5032225;28;1918;-72
2021/06/15 07:41:38;;;;;;;;;;;20.70;68.50;;;;;;5033442;28;1059;-72
2021/06/15 07:44:04;;;;;;;;;;;20.70;68.50;;;;;;5032282;28;1202;-72
2021/06/15 07:46:30;;;;;;;;;;;20.70;68.50;;;;;;5032103;28;1084;-72
2021/06/15 07:48:55;;;;;;;;;;;20.70;68.50;;;;;;5033169;28;1241;-72
2021/06/15 07:51:21;;;;;;;;;;;20.70;68.60;;;;;;5012210;28;1501;-72
2021/06/15 07:53:46;;;;;;;;;;;20.70;68.50;;;;;;5031359;28;1146;-72
2021/06/15 07:56:11;;;;;;;;;;;20.70;68.60;;;;;;5033082;28;1174;-72
2021/06/15 07:58:37;;;;;;;;;;;20.70;68.60;;;;;;5032751;28;1959;-72
2021/06/15 08:01:02;;;;;;;;;;;20.70;68.50;;;;;;5031780;28;1076;-73
2021/06/15 08:03:28;;;;;;;;;;;20.70;68.60;;;;;;5032809;28;1174;-72
2021/06/15 08:05:53;;;;;;;;;;;20.70;68.50;;;;;;5032831;28;1158;-72
2021/06/15 08:08:19;;;;;;;;;;;20.70;68.60;;;;;;5031388;28;1797;-72
2021/06/15 08:10:44;;;;;;;;;;;20.70;68.70;;;;;;5032817;28;1135;-72
2021/06/15 08:13:09;;;;;;;;;;;20.70;68.70;;;;;;5031152;28;1068;-72
2021/06/15 08:15:35;;;;;;;;;;;20.70;68.70;;;;;;5032834;28;1141;-72
2021/06/15 08:18:00;;;;;;;;;;;20.70;68.70;;;;;;5032498;28;1914;-72
2021/06/15 08:20:26;;;;;;;;;;;20.70;68.60;;;;;;5032484;28;1052;-72
2021/06/15 08:22:51;;;;;;;;;;;20.70;68.70;;;;;;5032298;28;1151;-72
2021/06/15 08:25:17;;;;;;;;;;;20.70;68.70;;;;;;5031195;28;1265;-72
2021/06/15 08:27:42;;;;;;;;;;;20.70;68.60;;;;;;5032438;28;1362;-72
2021/06/15 08:30:08;;;;;;;;;;;20.70;68.60;;;;;;5032330;28;1072;-72
2021/06/15 08:32:34;;;;;;;;;;;20.70;68.60;;;;;;5031292;28;1124;-72
2021/06/15 08:34:59;;;;;;;;;;;20.70;68.60;;;;;;5032389;28;1221;-72
2021/06/15 08:37:24;;;;;;;;;;;20.70;68.60;;;;;;5029480;28;65628;-72
2021/06/15 08:39:50;;;;;;;;;;;20.70;68.60;;;;;;5032495;28;1091;-72
2021/06/15 08:42:15;;;;;;;;;;;20.70;68.60;;;;;;5032904;28;1147;-72
2021/06/15 08:44:41;;;;;;;;;;;20.70;68.60;;;;;;5031642;28;1088;-71
2021/06/15 08:47:07;;;;;;;;;;;20.70;68.70;;;;;;5028590;28;1336;-72
2021/06/15 08:49:32;;;;;;;;;;;20.70;68.60;;;;;;5020773;28;1040;-71
2021/06/15 08:51:58;;;;;;;;;;;20.70;68.60;;;;;;5030138;28;1166;-72
2021/06/15 08:54:23;;;;;;;;;;;20.70;68.70;;;;;;5032182;28;1123;-72
2021/06/15 08:56:48;;;;;;;;;;;20.70;68.70;;;;;;5031028;28;1359;-71
2021/06/15 08:59:25;;;;;;;;;;;20.70;68.70;;;;;;5032909;28;1903;-72
2021/06/15 09:01:51;;;;;;;;;;;20.70;68.70;;;;;;5031662;28;1140;-71
2021/06/15 09:04:16;;;;;;;;;;;20.70;68.80;;;;;;5031513;28;1280;-72
2021/06/15 09:06:42;;;;;;;;;;;20.70;68.70;;;;;;5031168;28;1367;-73
2021/06/15 09:09:07;;;;;;;;;;;20.70;68.70;;;;;;5033094;28;1136;-72
2021/06/15 09:11:51;;;;;;;;;;;20.70;68.80;;;;;;5032579;28;1209;-73
2021/06/15 09:14:17;;;;;;;;;;;20.70;68.80;;;;;;5030790;28;1170;-72
2021/06/15 09:16:46;;;;;;;;;;;20.70;68.80;;;;;;5019769;28;1279;-72
2021/06/15 09:19:18;;;;;;;;;;;20.70;68.70;;;;;;5031156;28;1969;-72
2021/06/15 09:21:44;;;;;;;;;;;20.70;68.80;;;;;;5032588;28;1170;-71
2021/06/15 09:24:11;;;;;;;;;;;20.70;68.80;;;;;;5030717;28;1175;-71
2021/06/15 09:26:56;;;;;;;;;;;20.70;68.80;;;;;;5011304;28;1284;-71
2021/06/15 09:29:39;;;;;;;;;;;20.70;68.90;;;;;;5031307;28;1076;-71
2021/06/15 09:32:05;;;;;;;;;;;20.70;68.90;;;;;;5030484;28;1870;-74
2021/06/15 09:34:31;;;;;;;;;;;20.70;68.80;;;;;;5028670;28;1066;-73
2021/06/15 09:36:56;;;;;;;;;;;20.70;68.90;;;;;;5031159;28;1362;-73
2021/06/15 09:39:21;;;;;;;;;;;20.70;68.90;;;;;;5030253;28;1910;-73
2021/06/15 09:41:47;;;;;;;;;;;20.70;68.70;;;;;;5030288;28;1064;-73
2021/06/15 09:44:20;;;;;;;;;;;20.70;68.70;;;;;;5030809;28;1170;-73
2021/06/15 09:46:52;;;;;;;;;;;20.70;68.80;;;;;;5032391;28;1381;-73
2021/06/15 09:49:33;;;;;;;;;;;20.70;68.70;;;;;;5032401;28;1091;-73
2021/06/15 09:52:09;;;;;;;;;;;20.70;68.80;;;;;;5032425;28;1103;-73
2021/06/15 09:54:44;;;;;;;;;;;20.70;68.90;;;;;;5030767;28;1147;-72
2021/06/15 09:57:10;;;;;;;;;;;20.70;68.90;;;;;;5031288;28;1375;-72
2021/06/15 09:59:36;;;;;;;;;;;20.70;68.90;;;;;;5032377;28;1894;-71
2021/06/15 10:02:01;;;;;;;;;;;20.70;68.90;;;;;;5019087;28;1131;-72
2021/06/15 10:04:27;;;;;;;;;;;20.70;69.00;;;;;;5014553;28;1163;-72
2021/06/15 10:06:57;;;;;;;;;;;20.70;69.50;;;;;;5032884;28;1273;-72
2021/06/15 10:09:23;;;;;;;;;;;20.70;68.90;;;;;;5035790;28;1079;-72
2021/06/15 10:11:50;;;;;;;;;;;20.70;68.90;;;;;;5022724;28;1094;-72
2021/06/15 10:14:15;;;;;;;;;;;20.70;68.70;;;;;;5034216;28;1072;-72
2021/06/15 10:16:41;;;;;;;;;;;20.70;68.80;;;;;;5014911;28;1367;-72
2021/06/15 10:19:06;;;;;;;;;;;20.70;68.80;;;;;;5034462;28;1902;-72
2021/06/15 10:21:34;;;;;;;;;;;20.70;68.90;;;;;;5034497;28;1158;-72
2021/06/15 10:24:00;;;;;;;;;;;20.70;68.80;;;;;;5035158;28;1087;-72
2021/06/15 10:26:26;;;;;;;;;;;20.70;68.80;;;;;;5034488;28;1064;-71
2021/06/15 10:28:51;;;;;;;;;;;20.70;68.80;;;;;;5015925;28;1217;-71
2021/06/15 10:31:16;;;;;;;;;;;20.70;68.90;;;;;;5034297;28;1163;-72
2021/06/15 10:33:43;;;;;;;;;;;20.70;68.90;;;;;;5033961;28;1413;-71
2021/06/15 10:36:08;;;;;;;;;;;20.70;68.90;;;;;;5035365;28;1142;-71
2021/06/15 10:38:35;;;;;;;;;;;20.70;69.00;;;;;;5035063;28;1973;-72
2021/06/15 10:41:02;;;;;;;;;;;20.70;69.00;;;;;;5032458;28;859;-72
2021/06/15 10:43:36;;;;;;;;;;;20.70;69.00;;;;;;5034053;28;1119;-72
2021/06/15 10:46:05;;;;;;;;;;;20.70;69.00;;;;;;5035440;28;1064;-71
2021/06/15 10:48:32;;;;;;;;;;;20.70;69.00;;;;;;5034530;28;1271;-71
2021/06/15 10:50:58;;;;;;;;;;;20.70;69.00;;;;;;5033703;28;1135;-71
2021/06/15 10:53:34;;;;;;;;;;;20.70;69.00;;;;;;5034698;28;1190;-71
2021/06/15 10:56:09;;;;;;;;;;;20.70;69.00;;;;;;5033128;28;1127;-72
2021/06/15 10:58:35;;;;;;;;;;;20.70;69.00;;;;;;5034857;28;1926;-72
2021/06/15 11:01:16;;;;;;;;;;;20.70;69.00;;;;;;5034078;28;1163;-71
2021/06/15 11:03:45;;;;;;;;;;;20.70;69.00;;;;;;5034969;28;1062;-71
2021/06/15 11:06:11;;;;;;;;;;;20.70;69.00;;;;;;5017132;28;1480;-71
2021/06/15 11:08:36;;;;;;;;;;;20.70;69.00;;;;;;5033542;28;1279;-71
2021/06/15 11:11:01;;;;;;;;;;;20.70;69.00;;;;;;5033550;28;1057;-71
2021/06/15 11:13:39;;;;;;;;;;;20.70;69.00;;;;;;5034452;28;1099;-71
2021/06/15 11:16:05;;;;;;;;;;;20.70;69.00;;;;;;5020132;28;1446;-71
2021/06/15 11:18:30;;;;;;;;;;;20.70;69.00;;;;;;5033870;28;1910;-72
2021/06/15 11:20:56;;;;;;;;;;;20.70;69.00;;;;;;5034626;28;1322;-71
2021/06/15 11:23:21;;;;;;;;;;;20.70;69.00;;;;;;5033102;28;1119;-71
2021/06/15 11:25:47;;;;;;;;;;;20.70;69.00;;;;;;5034506;28;1071;-72
2021/06/15 11:28:31;;;;;;;;;;;20.70;69.00;;;;;;5034431;28;1279;-71
2021/06/15 11:31:15;;;;;;;;;;;20.70;69.00;;;;;;5034600;28;1197;-71
2021/06/15 11:34:01;;;;;;;;;;;20.70;69.00;;;;;;5033923;28;1118;-71
2021/06/15 11:36:37;;;;;;;;;;;20.70;69.00;;;;;;5013400;28;1158;-71
2021/06/15 11:39:29;;;;;;;;;;;20.70;68.90;;;;;;5032733;28;1910;-71
2021/06/15 11:42:07;;;;;;;;;;;20.70;69.10;;;;;;5027679;28;1048;-71
2021/06/15 11:44:51;;;;;;;;;;;20.70;69.30;;;;;;5033862;28;1146;-71
2021/06/15 11:47:26;;;;;;;;;;;20.70;69.50;;;;;;5032707;28;1289;-71
2021/06/15 11:50:10;;;;;;;;;;;20.70;69.80;;;;;;5032889;28;1143;-71
2021/06/15 11:52:36;;;;;;;;;;;20.70;69.80;;;;;;5034397;28;1142;-71
2021/06/15 11:55:02;;;;;;;;;;;20.70;69.80;;;;;;5032432;28;1048;-72
2021/06/15 11:57:28;;;;;;;;;;;20.70;69.70;;;;;;5033863;28;1906;-71
2021/06/15 11:59:53;;;;;;;;;;;20.70;69.60;;;;;;5033709;28;1179;-71
2021/06/15 12:02:19;;;;;;;;;;;20.70;69.40;;;;;;5033903;28;1134;-71
2021/06/15 12:05:04;;;;;;;;;;;20.70;69.40;;;;;;5033417;28;1075;-71
2021/06/15 12:07:30;;;;;;;;;;;20.70;69.40;;;;;;5033972;28;1363;-71
2021/06/15 12:10:08;;;;;;;;;;;20.70;69.30;;;;;;5033470;28;1198;-71
2021/06/15 12:12:53;;;;;;;;;;;20.70;69.30;;;;;;5032420;28;1222;-71
2021/06/15 12:15:24;;;;;;;;;;;20.70;69.40;;;;;;5033587;28;1114;-71
2021/06/15 12:17:50;;;;;;;;;;;20.70;69.30;;;;;;5033424;28;1911;-72
2021/06/15 12:20:26;;;;;;;;;;;20.70;69.20;;;;;;5033378;28;1169;-72
2021/06/15 12:22:51;;;;;;;;;;;20.70;69.20;;;;;;5032095;28;1178;-72
2021/06/15 12:25:17;;;;;;;;;;;20.70;69.20;;;;;;5012661;28;1356;-72
2021/06/15 12:27:42;;;;;;;;;;;20.70;69.20;;;;;;5032495;28;1200;-72
2021/06/15 12:30:08;;;;;;;;;;;20.70;69.10;;;;;;5032068;28;1460;-71
2021/06/15 12:32:46;;;;;;;;;;;20.70;69.10;;;;;;5033440;28;1134;-71
2021/06/15 12:35:15;;;;;;;;;;;20.70;69.10;;;;;;5033059;28;1063;-70
2021/06/15 12:37:41;;;;;;;;;;;20.70;69.10;;;;;;5027913;28;1955;-72
2021/06/15 12:40:06;;;;;;;;;;;20.70;69.10;;;;;;5019287;28;1002;-72
2021/06/15 12:42:32;;;;;;;;;;;20.70;69.10;;;;;;5015493;28;1167;-72
2021/06/15 12:44:57;;;;;;;;;;;20.70;69.10;;;;;;5031533;28;1115;-72
2021/06/15 12:47:23;;;;;;;;;;;20.70;69.10;;;;;;5032983;28;1269;-72
2021/06/15 12:49:51;;;;;;;;;;;20.70;69.10;;;;;;5032767;28;1271;-72
2021/06/15 12:52:17;;;;;;;;;;;20.70;69.10;;;;;;5032943;28;1135;-72
2021/06/15 12:54:43;;;;;;;;;;;20.70;69.10;;;;;;5031302;28;1080;-72
2021/06/15 12:57:18;;;;;;;;;;;20.70;69.10;;;;;;5031635;28;1278;-72
2021/06/15 12:59:55;;;;;;;;;;;20.70;69.10;;;;;;5031693;28;1951;-72
2021/06/15 13:02:21;;;;;;;;;;;20.70;69.10;;;;;;5032093;28;1064;-72
2021/06/15 13:04:52;;;;;;;;;;;20.70;69.10;;;;;;5014774;28;1461;-72
2021/06/15 13:07:17;;;;;;;;;;;20.70;69.10;;;;;;5032837;28;1366;-72
2021/06/15 13:09:43;;;;;;;;;;;20.70;69.10;;;;;;5032861;28;1190;-72
2021/06/15 13:12:09;;;;;;;;;;;20.70;69.10;;;;;;5032024;28;1072;-72
2021/06/15 13:14:43;;;;;;;;;;;20.70;69.10;;;;;;5028234;28;1189;-72
2021/06/15 13:17:12;;;;;;;;;;;20.70;69.10;;;;;;5003813;28;1203;-72
2021/06/15 13:19:40;;;;;;;;;;;20.70;69.10;;;;;;5031439;28;1973;-73
2021/06/15 13:22:06;;;;;;;;;;;20.70;69.10;;;;;;5031313;28;1214;-73
2021/06/15 13:24:34;;;;;;;;;;;20.70;69.10;;;;;;5032439;28;1124;-73
2021/06/15 13:27:17;;;;;;;;;;;20.70;69.10;;;;;;5032463;28;1283;-73
2021/06/15 13:29:45;;;;;;;;;;;20.70;69.10;;;;;;5032707;28;1035;-72
2021/06/15 13:32:16;;;;;;;;;;;20.70;69.10;;;;;;5032535;28;1127;-72
2021/06/15 13:35:03;;;;;;;;;;;20.70;69.10;;;;;;5032546;28;1083;-72
2021/06/15 13:37:28;;;;;;;;;;;20.70;69.10;;;;;;5010784;28;1329;-72
2021/06/15 13:39:54;;;;;;;;;;;20.70;69.10;;;;;;5031293;28;1902;-72
2021/06/15 13:42:26;;;;;;;;;;;20.70;69.10;;;;;;5035117;28;1108;-72
2021/06/15 13:45:10;;;;;;;;;;;20.70;69.10;;;;;;5036183;28;1051;-72
2021/06/15 13:47:36;;;;;;;;;;;20.70;69.10;;;;;;5036435;28;1291;-72
2021/06/15 13:50:02;;;;;;;;;;;20.70;69.10;;;;;;5034989;28;1155;-73
2021/06/15 13:52:28;;;;;;;;;;;20.70;69.10;;;;;;5036488;28;1060;-73
2021/06/15 13:54:53;;;;;;;;;;;20.70;69.10;;;;;;5034842;28;1084;-72
2021/06/15 13:57:19;;;;;;;;;;;20.70;69.10;;;;;;5036420;28;1339;-73
2021/06/15 13:59:44;;;;;;;;;;;20.70;69.10;;;;;;5036052;28;1949;-72
2021/06/15 14:02:09;;;;;;;;;;;20.70;69.10;;;;;;5036229;28;1088;-72
2021/06/15 14:04:35;;;;;;;;;;;20.70;69.10;;;;;;5035491;28;1103;-72
2021/06/15 14:07:00;;;;;;;;;;;20.70;69.20;;;;;;5036047;28;1295;-72
2021/06/15 14:09:27;;;;;;;;;;;20.70;69.10;;;;;;5035950;28;1189;-71
2021/06/15 14:11:52;;;;;;;;;;;20.70;69.10;;;;;;5036013;28;1055;-71
2021/06/15 14:14:18;;;;;;;;;;;20.70;69.10;;;;;;5035432;28;1095;-71
2021/06/15 14:16:43;;;;;;;;;;;20.70;69.10;;;;;;5034610;28;1365;-70
2021/06/15 14:19:09;;;;;;;;;;;20.70;69.10;;;;;;5035537;28;1973;-70
2021/06/15 14:21:37;;;;;;;;;;;20.70;69.10;;;;;;5035815;28;1122;-71
2021/06/15 14:24:06;;;;;;;;;;;20.70;69.10;;;;;;5034061;28;1334;-71
2021/06/15 14:26:32;;;;;;;;;;;20.70;69.20;;;;;;5035704;28;1122;-71
2021/06/15 14:28:57;;;;;;;;;;;20.70;69.50;;;;;;5034584;28;1176;-70
2021/06/15 14:31:22;;;;;;;;;;;20.70;69.60;;;;;;5035649;28;1127;-71
2021/06/15 14:33:48;;;;;;;;;;;20.70;69.60;;;;;;5035107;28;1068;-70
2021/06/15 14:36:13;;;;;;;;;;;20.70;69.60;;;;;;5035876;28;1048;-71